Time;durP1;ratioP1;P1;durP2;ratioP2;P2;SDS_P1;SDS_P2;PMS_P1;PMS_P2;Temp;Humidity;BMP_temperature;BMP_pressure;BME280_temperature;BME280_humidity;BME280_pressure;Samples;Min_cycle;Max_cycle;Signal;HPM_P1;HPM_P2
2023/12/06 00:01:29;;;;;;;14.30;6.82;;;;;;;4.43;100.00;100641.59;5032595;28;20104;-86
2023/12/06 00:03:55;;;;;;;11.90;7.28;;;;;;;4.43;100.00;100648.44;5032293;28;20021;-86
2023/12/06 00:06:20;;;;;;;15.05;8.73;;;;;;;4.43;100.00;100643.31;5041525;28;20484;-86
2023/12/06 00:08:46;;;;;;;12.57;7.22;;;;;;;4.46;100.00;100648.34;5051953;28;20112;-87
2023/12/06 00:11:11;;;;;;;13.45;6.80;;;;;;;4.38;100.00;100640.06;5052065;28;20386;-86
2023/12/06 00:13:37;;;;;;;13.02;7.05;;;;;;;4.39;100.00;100639.16;5052031;28;20029;-87
2023/12/06 00:16:02;;;;;;;12.40;7.18;;;;;;;4.41;100.00;100645.91;5042260;28;20032;-86
2023/12/06 00:18:27;;;;;;;12.90;6.88;;;;;;;4.40;100.00;100643.41;5051941;28;20024;-87
2023/12/06 00:20:53;;;;;;;8.80;6.30;;;;;;;4.38;100.00;100635.78;5051888;28;20079;-86
2023/12/06 00:23:18;;;;;;;10.63;5.88;;;;;;;4.29;100.00;100629.25;5050583;28;20035;-87
2023/12/06 00:25:45;;;;;;;9.65;6.13;;;;;;;4.25;100.00;100627.63;5039369;28;20413;-86
2023/12/06 00:28:10;;;;;;;9.30;6.03;;;;;;;4.05;100.00;100623.09;5031958;28;20083;-87
2023/12/06 00:30:36;;;;;;;10.27;5.55;;;;;;;4.03;100.00;100631.69;5031859;28;20038;-86
2023/12/06 00:33:02;;;;;;;8.93;4.65;;;;;;;3.96;100.00;100632.72;5031754;28;20026;-86
2023/12/06 00:35:27;;;;;;;6.18;4.43;;;;;;;3.89;100.00;100636.31;5031229;28;20030;-86
2023/12/06 00:37:53;;;;;;;6.15;4.25;;;;;;;3.83;100.00;100630.50;5032002;28;20116;-86
2023/12/06 00:40:18;;;;;;;8.45;4.38;;;;;;;3.68;100.00;100643.63;5047325;28;20056;-86
2023/12/06 00:42:43;;;;;;;7.78;4.15;;;;;;;3.41;100.00;100640.94;5032005;28;20061;-86
2023/12/06 00:45:09;;;;;;;6.63;4.30;;;;;;;3.48;100.00;100635.66;5031238;28;20430;-86
2023/12/06 00:47:34;;;;;;;6.63;3.55;;;;;;;3.56;100.00;100638.84;5031769;28;20217;-86
2023/12/06 00:50:00;;;;;;;6.70;3.83;;;;;;;3.46;100.00;100633.13;5031911;28;20017;-86
2023/12/06 00:52:25;;;;;;;7.05;4.45;;;;;;;3.46;100.00;100632.31;5031640;28;20373;-86
2023/12/06 00:54:51;;;;;;;8.02;4.75;;;;;;;3.43;100.00;100628.94;5031283;28;20463;-86
2023/12/06 00:57:16;;;;;;;8.45;4.95;;;;;;;3.51;100.00;100630.47;5031763;28;20028;-86
2023/12/06 00:59:41;;;;;;;7.93;4.82;;;;;;;3.52;100.00;100632.16;5031800;28;20025;-86
2023/12/06 01:02:07;;;;;;;7.53;4.90;;;;;;;3.22;100.00;100640.53;5030506;28;20379;-86
2023/12/06 01:04:36;;;;;;;7.60;4.15;;;;;;;3.19;100.00;100642.31;5031606;28;20100;-86
2023/12/06 01:07:02;;;;;;;7.90;4.47;;;;;;;3.17;100.00;100636.41;5031440;28;20061;-86
2023/12/06 01:09:27;;;;;;;8.65;4.97;;;;;;;3.15;100.00;100639.00;5030181;28;20064;-86
2023/12/06 01:11:52;;;;;;;6.28;4.60;;;;;;;3.00;100.00;100640.19;5031424;28;20108;-86
2023/12/06 01:14:18;;;;;;;6.78;4.50;;;;;;;3.17;100.00;100641.50;5031373;28;20059;-86
2023/12/06 01:16:43;;;;;;;7.80;4.72;;;;;;;3.13;100.00;100639.91;5042767;28;20033;-86
2023/12/06 01:19:08;;;;;;;7.60;4.97;;;;;;;3.16;100.00;100634.72;5053802;28;20183;-86
2023/12/06 01:21:34;;;;;;;5.57;4.43;;;;;;;3.04;100.00;100629.91;5055327;28;20067;-86
2023/12/06 01:23:59;;;;;;;6.30;4.57;;;;;;;2.98;100.00;100636.84;5054697;28;20083;-86
2023/12/06 01:26:24;;;;;;;7.65;4.15;;;;;;;2.96;100.00;100628.38;5039870;28;20030;-87
2023/12/06 01:28:50;;;;;;;8.27;4.88;;;;;;;2.91;100.00;100631.91;5035303;28;20026;-86
2023/12/06 01:31:15;;;;;;;8.10;4.57;;;;;;;2.95;100.00;100626.72;5035226;28;20063;-86
2023/12/06 01:33:40;;;;;;;13.15;5.18;;;;;;;2.97;100.00;100629.22;5035086;28;20025;-86
2023/12/06 01:36:06;;;;;;;7.93;5.38;;;;;;;2.75;100.00;100619.50;5034574;28;20037;-86
2023/12/06 01:38:31;;;;;;;12.07;6.35;;;;;;;2.79;100.00;100620.28;5035189;28;20025;-86
2023/12/06 01:40:57;;;;;;;13.73;6.15;;;;;;;2.85;100.00;100616.75;5035006;28;20032;-86
2023/12/06 01:43:22;;;;;;;12.85;6.47;;;;;;;2.55;100.00;100619.94;5035159;28;20048;-86
2023/12/06 01:45:47;;;;;;;9.73;5.80;;;;;;;2.50;100.00;100621.75;5034273;28;20077;-86
2023/12/06 01:48:13;;;;;;;11.30;6.05;;;;;;;2.50;100.00;100621.75;5034894;28;20022;-86
2023/12/06 01:50:41;;;;;;;9.50;5.65;;;;;;;2.47;100.00;100619.28;5033632;28;20392;-86
2023/12/06 01:53:06;;;;;;;11.07;5.75;;;;;;;2.27;100.00;100616.31;5033527;28;20030;-86
2023/12/06 01:55:32;;;;;;;10.43;6.40;;;;;;;2.40;100.00;100617.72;5033956;28;20396;-86
2023/12/06 01:57:59;;;;;;;10.77;6.18;;;;;;;2.42;100.00;100621.09;5034601;28;20026;-86
2023/12/06 02:00:25;;;;;;;15.13;5.95;;;;;;;2.46;100.00;100624.38;5033457;28;20095;-86
2023/12/06 02:02:50;;;;;;;11.63;6.63;;;;;;;2.54;100.00;100631.00;5033370;28;20487;-86
2023/12/06 02:05:16;;;;;;;13.02;7.10;;;;;;;2.55;100.00;100619.94;5033664;28;20029;-86
2023/12/06 02:07:42;;;;;;;10.07;6.05;;;;;;;2.60;100.00;100619.00;5033422;28;20052;-86
2023/12/06 02:10:09;;;;;;;11.48;5.80;;;;;;;2.60;100.00;100619.00;5034396;28;20061;-85
2023/12/06 02:12:34;;;;;;;12.43;6.30;;;;;;;2.54;100.00;100622.53;5034447;28;20551;-86
2023/12/06 02:15:01;;;;;;;11.15;5.47;;;;;;;2.49;100.00;100626.91;5033806;28;20112;-86
2023/12/06 02:17:27;;;;;;;10.55;6.28;;;;;;;2.43;100.00;100617.66;5033229;28;20410;-85
2023/12/06 02:19:54;;;;;;;16.52;6.30;;;;;;;2.37;100.00;100617.78;5033949;28;20123;-86
2023/12/06 02:22:21;;;;;;;9.90;5.78;;;;;;;2.29;100.00;100620.50;5034283;28;20083;-86
2023/12/06 02:24:51;;;;;;;12.88;6.38;;;;;;;2.27;100.00;100621.41;5034113;28;20471;-86
2023/12/06 02:27:17;;;;;;;9.93;6.13;;;;;;;2.10;100.00;100620.03;5034078;28;20040;-86
2023/12/06 02:29:42;;;;;;;10.13;5.70;;;;;;;2.04;100.00;100622.69;5033552;28;20025;-86
2023/12/06 02:32:07;;;;;;;10.40;6.05;;;;;;;2.10;100.00;100622.56;5034158;28;20053;-86
2023/12/06 02:34:35;;;;;;;10.73;5.80;;;;;;;2.08;100.00;100616.66;5033880;28;20034;-86
2023/12/06 02:37:04;;;;;;;13.00;5.82;;;;;;;2.10;100.00;100632.75;5033517;28;20029;-86
2023/12/06 02:39:34;;;;;;;10.35;5.78;;;;;;;2.01;100.00;100632.94;5034170;28;20079;-86
2023/12/06 02:41:59;;;;;;;10.63;5.55;;;;;;;2.02;100.00;100631.22;5033838;28;20029;-86
2023/12/06 02:44:25;;;;;;;11.60;5.45;;;;;;;1.87;100.00;100625.53;5034010;28;20036;-86
2023/12/06 02:46:50;;;;;;;9.55;5.28;;;;;;;1.88;100.00;100629.78;5032919;28;20395;-85
2023/12/06 02:49:15;;;;;;;13.48;5.57;;;;;;;1.86;100.00;100620.50;5033996;28;20056;-85
2023/12/06 02:51:41;;;;;;;10.20;5.90;;;;;;;1.84;100.00;100612.03;5032721;28;20029;-85
2023/12/06 02:54:06;;;;;;;16.00;5.57;;;;;;;1.64;100.00;100622.59;5033011;28;20018;-85
2023/12/06 02:56:32;;;;;;;10.10;5.18;;;;;;;1.60;100.00;100624.34;5031414;28;20506;-87
2023/12/06 02:58:57;;;;;;;16.67;6.18;;;;;;;1.09;100.00;100626.88;5033707;28;20030;-85
2023/12/06 03:01:22;;;;;;;14.13;6.63;;;;;;;0.98;100.00;100637.22;5032284;28;20053;-84
2023/12/06 03:03:48;;;;;;;12.07;6.05;;;;;;;1.28;100.00;100633.34;5032212;28;20018;-86
2023/12/06 03:06:13;;;;;;;11.27;6.20;;;;;;;1.43;100.00;100636.50;5032764;28;20032;-85
2023/12/06 03:08:38;;;;;;;13.30;6.07;;;;;;;1.47;100.00;100638.16;5033587;28;20514;-85
2023/12/06 03:11:04;;;;;;;10.57;5.72;;;;;;;1.50;100.00;100631.28;5033469;28;20025;-85
2023/12/06 03:13:29;;;;;;;13.18;6.35;;;;;;;1.53;100.00;100632.09;5033346;28;20025;-85
2023/12/06 03:15:54;;;;;;;13.38;7.07;;;;;;;1.53;100.00;100627.84;5033153;28;20127;-85
2023/12/06 03:18:20;;;;;;;11.65;6.75;;;;;;;1.55;100.00;100630.38;5033252;28;20104;-87
2023/12/06 03:20:45;;;;;;;11.18;5.82;;;;;;;1.45;100.00;100629.69;5033184;28;20028;-85
2023/12/06 03:23:10;;;;;;;9.88;6.32;;;;;;;1.53;100.00;100622.75;5033033;28;20039;-87
2023/12/06 03:25:36;;;;;;;12.70;6.72;;;;;;;1.59;100.00;100621.84;5032115;28;20034;-87
2023/12/06 03:28:01;;;;;;;16.10;6.97;;;;;;;1.61;100.00;100623.50;5033512;28;20422;-87
2023/12/06 03:30:26;;;;;;;13.70;7.88;;;;;;;1.50;100.00;100620.28;5033075;28;20091;-87
2023/12/06 03:32:52;;;;;;;13.43;6.85;;;;;;;1.26;100.00;100624.06;5032955;28;20021;-87
2023/12/06 03:35:17;;;;;;;15.57;6.32;;;;;;;1.31;100.00;100611.28;5032199;28;20025;-86
2023/12/06 03:37:43;;;;;;;17.27;8.15;;;;;;;1.49;100.00;100616.06;5032929;28;20434;-87
2023/12/06 03:40:08;;;;;;;9.80;5.43;;;;;;;1.25;100.00;100610.53;5048695;28;20095;-86
2023/12/06 03:42:34;;;;;;;16.38;6.53;;;;;;;1.34;100.00;100619.72;5038587;28;20452;-87
2023/12/06 03:44:59;;;;;;;10.90;6.13;;;;;;;1.33;100.00;100604.47;5032435;28;20033;-87
2023/12/06 03:47:24;;;;;;;16.40;6.32;;;;;;;1.24;100.00;100611.41;5031194;28;20029;-87
2023/12/06 03:49:50;;;;;;;11.25;7.85;;;;;;;1.08;100.00;100609.97;5047871;28;20037;-87
2023/12/06 03:52:15;;;;;;;16.45;6.28;;;;;;;1.19;100.00;100602.97;5032061;28;20026;-87
2023/12/06 03:54:40;;;;;;;17.75;7.65;;;;;;;1.07;100.00;100603.19;5030904;28;20025;-87
2023/12/06 03:57:06;;;;;;;10.60;6.07;;;;;;;1.01;100.00;100601.56;5031304;28;20043;-86
2023/12/06 03:59:31;;;;;;;9.95;6.22;;;;;;;1.04;100.00;100593.91;5032224;28;20160;-86
2023/12/06 04:01:57;;;;;;;9.82;6.25;;;;;;;1.06;100.00;100601.50;5030506;28;20464;-87
2023/12/06 04:04:22;;;;;;;13.48;5.97;;;;;;;1.04;100.00;100598.16;5032182;28;20491;-87
2023/12/06 04:10:10;;;;;;;10.38;5.30;;;;;;;0.76;100.00;100615.53;5032015;28;20048;-86
2023/12/06 04:12:35;;;;;;;16.52;6.95;;;;;;;0.73;100.00;100629.09;5031627;28;20025;-87
2023/12/06 04:15:00;;;;;;;13.85;6.88;;;;;;;0.89;100.00;100624.63;5032007;28;20128;-87
2023/12/06 04:17:26;;;;;;;18.52;7.20;;;;;;;0.91;100.00;100629.72;5032023;28;20022;-87
2023/12/06 04:19:51;;;;;;;15.10;8.77;;;;;;;0.92;100.00;100636.47;5031949;28;20103;-87
2023/12/06 04:22:17;;;;;;;17.45;7.07;;;;;;;1.02;100.00;100638.00;5031533;28;20388;-86
2023/12/06 04:24:42;;;;;;;20.02;7.18;;;;;;;1.11;100.00;100630.22;5031921;28;20179;-87
2023/12/06 04:27:08;;;;;;;13.38;7.00;;;;;;;1.09;100.00;100637.03;5032080;28;20486;-84
2023/12/06 04:29:33;;;;;;;13.15;7.32;;;;;;;1.11;100.00;100640.41;5031872;28;20519;-86
2023/12/06 04:31:59;;;;;;;13.43;6.78;;;;;;;1.14;100.00;100639.50;5031448;28;20021;-86
2023/12/06 04:34:24;;;;;;;14.95;7.40;;;;;;;1.21;100.00;100647.03;5031803;28;20538;-85
2023/12/06 04:36:50;;;;;;;23.05;9.85;;;;;;;1.29;100.00;100639.25;5031756;28;20049;-85
2023/12/06 04:39:15;;;;;;;14.45;7.82;;;;;;;1.28;100.00;100643.50;5031855;28;20017;-86
2023/12/06 04:41:40;;;;;;;15.77;8.00;;;;;;;1.25;100.00;100643.56;5031732;28;20391;-86
2023/12/06 04:44:06;;;;;;;11.90;6.68;;;;;;;1.34;100.00;100647.69;5030937;28;20117;-86
2023/12/06 04:46:31;;;;;;;12.93;6.88;;;;;;;1.33;100.00;100650.25;5031953;28;20021;-86
2023/12/06 04:48:57;;;;;;;17.48;8.32;;;;;;;1.23;100.00;100649.53;5031699;28;20021;-86
2023/12/06 04:51:22;;;;;;;17.55;8.00;;;;;;;1.36;100.00;100648.47;5030324;28;20460;-86
2023/12/06 04:53:48;;;;;;;13.88;8.20;;;;;;;1.42;100.00;100650.09;5034585;28;20121;-85
2023/12/06 04:56:13;;;;;;;13.18;7.45;;;;;;;1.52;100.00;100650.78;5038221;28;20490;-85
2023/12/06 04:58:39;;;;;;;15.00;7.53;;;;;;;1.55;100.00;100648.19;5047239;28;20033;-85
2023/12/06 05:01:04;;;;;;;13.68;7.75;;;;;;;1.58;100.00;100640.50;5035868;28;20059;-85
2023/12/06 05:03:30;;;;;;;12.57;7.70;;;;;;;1.60;100.00;100644.69;5035289;28;20046;-85
2023/12/06 05:05:56;;;;;;;15.40;7.45;;;;;;;1.69;100.00;100652.16;5035644;28;20044;-86
2023/12/06 05:08:21;;;;;;;15.85;7.57;;;;;;;1.69;100.00;100649.63;5034430;28;20025;-86
2023/12/06 05:10:47;;;;;;;15.75;8.18;;;;;;;1.71;100.00;100652.16;5035562;28;20453;-86
2023/12/06 05:13:12;;;;;;;12.00;6.85;;;;;;;1.65;100.00;100663.25;5035001;28;20033;-85
2023/12/06 05:15:38;;;;;;;13.52;8.10;;;;;;;1.55;100.00;100656.66;5035790;28;20415;-85
2023/12/06 05:18:03;;;;;;;13.52;8.32;;;;;;;1.27;100.00;100658.81;5035561;28;20480;-86
2023/12/06 05:20:29;;;;;;;13.73;7.55;;;;;;;1.39;100.00;100665.38;5035389;28;20109;-86
2023/12/06 05:22:54;;;;;;;12.02;6.85;;;;;;;1.48;100.00;100660.16;5034841;28;20033;-86
2023/12/06 05:25:19;;;;;;;12.25;6.90;;;;;;;1.44;100.00;100663.59;5035088;28;20526;-86
2023/12/06 05:27:45;;;;;;;15.45;6.22;;;;;;;1.36;100.00;100656.09;5035395;28;20017;-86
2023/12/06 05:30:11;;;;;;;14.82;6.78;;;;;;;1.33;100.00;100650.25;5035224;28;20076;-86
2023/12/06 05:32:37;;;;;;;13.70;7.38;;;;;;;1.21;100.00;100661.44;5034713;28;20025;-86
2023/12/06 05:35:03;;;;;;;11.90;7.15;;;;;;;1.25;100.00;100655.44;5033872;28;20030;-86
2023/12/06 05:37:29;;;;;;;13.95;6.90;;;;;;;1.11;100.00;100655.66;5035115;28;20025;-86
2023/12/06 05:39:54;;;;;;;12.43;6.43;;;;;;;1.07;100.00;100664.19;5035081;28;20029;-86
2023/12/06 05:42:20;;;;;;;12.63;7.18;;;;;;;1.01;100.00;100670.19;5034809;28;20436;-86
2023/12/06 05:44:45;;;;;;;10.57;6.28;;;;;;;0.96;100.00;100655.88;5033437;28;20036;-86
2023/12/06 05:47:10;;;;;;;15.13;7.97;;;;;;;0.94;100.00;100655.91;5033701;28;20021;-85
2023/12/06 05:49:36;;;;;;;17.15;8.10;;;;;;;0.95;100.00;100656.72;5033780;28;20025;-86
2023/12/06 05:52:01;;;;;;;15.02;7.10;;;;;;;0.93;100.00;100661.03;5034839;28;20116;-86
2023/12/06 05:54:27;;;;;;;13.45;7.10;;;;;;;0.90;100.00;100649.16;5033587;28;20165;-85
2023/12/06 05:56:52;;;;;;;91.78;9.00;;;;;;;0.90;100.00;100656.78;5034803;28;20104;-86
2023/12/06 05:59:17;;;;;;;36.92;8.18;;;;;;;0.91;100.00;100667.81;5034652;28;20388;-85
2023/12/06 06:01:43;;;;;;;28.15;7.75;;;;;;;0.81;100.00;100665.41;5034920;28;20156;-86
2023/12/06 06:04:08;;;;;;;11.23;7.70;;;;;;;0.85;100.00;100659.44;5045283;28;20090;-86
2023/12/06 06:06:34;;;;;;;238.55;12.82;;;;;;;0.51;100.00;100653.09;5054394;28;20037;-86
2023/12/06 06:09:01;;;;;;;308.75;15.98;;;;;;;0.41;100.00;100657.44;5052953;28;20021;-86
2023/12/06 06:11:26;;;;;;;306.00;15.93;;;;;;;0.12;100.00;100650.16;5052851;28;20566;-86
2023/12/06 06:13:51;;;;;;;85.50;9.68;;;;;;;0.27;100.00;100644.94;5036594;28;20034;-86
2023/12/06 06:16:17;;;;;;;330.85;13.70;;;;;;;0.20;100.00;100640.78;5034315;28;20034;-85
2023/12/06 06:18:43;;;;;;;268.65;13.18;;;;;;;0.10;100.00;100634.09;5034217;28;20364;-85
2023/12/06 06:21:08;;;;;;;44.60;8.25;;;;;;;0.17;100.00;100639.13;5034368;28;20021;-86
2023/12/06 06:23:34;;;;;;;18.23;8.05;;;;;;;0.34;100.00;100656.69;5032360;28;20476;-85
2023/12/06 06:25:59;;;;;;;147.95;10.88;;;;;;;0.03;100.00;100646.03;5032757;28;20084;-86
2023/12/06 06:28:25;;;;;;;41.22;7.35;;;;;;;0.19;100.00;100641.63;5033012;28;20545;-85
2023/12/06 06:30:50;;;;;;;96.57;10.15;;;;;;;0.23;100.00;100647.53;5034332;28;20025;-86
2023/12/06 06:33:16;;;;;;;19.20;8.50;;;;;;;0.21;100.00;100645.81;5033571;28;20029;-86
2023/12/06 06:35:41;;;;;;;15.88;9.30;;;;;;;0.38;100.00;100658.31;5033956;28;20036;-85
2023/12/06 06:38:06;;;;;;;19.38;9.35;;;;;;;0.43;100.00;100656.56;5032665;28;20031;-85
2023/12/06 06:40:32;;;;;;;21.85;9.90;;;;;;;0.33;100.00;100655.00;5033821;28;20049;-86
2023/12/06 06:42:57;;;;;;;19.63;9.13;;;;;;;0.48;100.00;100655.69;5032323;28;20092;-86
2023/12/06 06:45:23;;;;;;;22.25;9.55;;;;;;;0.58;100.00;100653.00;5033650;28;20116;-86
2023/12/06 06:47:48;;;;;;;19.00;9.65;;;;;;;0.66;100.00;100647.84;5033767;28;20025;-88
2023/12/06 06:50:15;;;;;;;23.40;10.93;;;;;;;0.79;100.00;100653.59;5033825;28;20017;-88
2023/12/06 06:52:41;;;;;;;23.88;9.88;;;;;;;0.87;100.00;100653.47;5033109;28;20026;-87
2023/12/06 06:55:09;;;;;;;21.42;9.75;;;;;;;0.91;100.00;100658.50;5033580;28;20100;-86
2023/12/06 06:57:35;;;;;;;19.33;9.80;;;;;;;0.94;100.00;100667.78;5033538;28;20029;-86
2023/12/06 07:00:00;;;;;;;19.45;10.10;;;;;;;0.98;100.00;100660.09;5033465;28;20028;-87
2023/12/06 07:02:26;;;;;;;19.77;9.95;;;;;;;1.04;100.00;100659.16;5035840;28;20053;-87
2023/12/06 07:04:51;;;;;;;16.23;9.45;;;;;;;1.07;100.00;100659.09;5035376;28;20128;-87
2023/12/06 07:07:18;;;;;;;25.40;11.70;;;;;;;1.15;100.00;100657.28;5038895;28;20487;-87
2023/12/06 07:09:43;;;;;;;25.05;10.98;;;;;;;1.19;100.00;100653.81;5032270;28;20391;-87
2023/12/06 07:12:09;;;;;;;19.08;10.65;;;;;;;1.23;100.00;100663.09;5033316;28;20021;-87
2023/12/06 07:14:35;;;;;;;27.33;11.38;;;;;;;1.21;100.00;100662.28;5033595;28;20064;-86
2023/12/06 07:17:00;;;;;;;14.52;8.57;;;;;;;1.15;100.00;100659.84;5032809;28;20124;-86
2023/12/06 07:19:26;;;;;;;20.58;9.88;;;;;;;1.04;100.00;100665.06;5035150;28;20037;-86
2023/12/06 07:21:52;;;;;;;15.43;9.43;;;;;;;1.03;100.00;100667.66;5032720;28;20192;-86
2023/12/06 07:24:19;;;;;;;41.50;11.32;;;;;;;1.03;100.00;100671.03;5033092;28;20064;-86
2023/12/06 07:26:45;;;;;;;20.42;9.75;;;;;;;1.03;100.00;100670.19;5033012;28;20033;-86
2023/12/06 07:29:10;;;;;;;61.90;12.35;;;;;;;0.96;100.00;100671.97;5032444;28;20033;-86
2023/12/06 07:31:36;;;;;;;168.02;15.23;;;;;;;0.88;100.00;100672.94;5033089;28;20035;-86
2023/12/06 07:34:01;;;;;;;52.30;11.23;;;;;;;0.79;100.00;100669.66;5032908;28;20032;-86
2023/12/06 07:36:26;;;;;;;51.00;10.80;;;;;;;0.77;100.00;100675.63;5032983;28;20037;-87
2023/12/06 07:38:52;;;;;;;37.97;11.43;;;;;;;0.93;100.00;100676.28;5032353;28;20113;-86
2023/12/06 07:41:17;;;;;;;17.38;9.95;;;;;;;0.85;100.00;100672.13;5032539;28;20028;-86
2023/12/06 07:43:42;;;;;;;17.50;9.90;;;;;;;0.98;100.00;100669.41;5032022;28;20029;-86
2023/12/06 07:46:08;;;;;;;20.30;9.90;;;;;;;0.98;100.00;100677.88;5031926;28;20080;-86
2023/12/06 07:48:34;;;;;;;14.75;8.77;;;;;;;1.07;100.00;100684.50;5032083;28;20107;-86
2023/12/06 07:51:00;;;;;;;20.17;8.98;;;;;;;1.05;100.00;100682.00;5032482;28;20391;-86
2023/12/06 07:53:25;;;;;;;16.33;9.23;;;;;;;1.22;100.00;100684.31;5032103;28;20029;-86
2023/12/06 07:55:54;;;;;;;22.08;10.73;;;;;;;1.28;100.00;100679.13;5032561;28;20070;-86
2023/12/06 07:58:20;;;;;;;16.42;9.35;;;;;;;1.34;100.00;100683.28;5032413;28;20044;-86
2023/12/06 08:00:45;;;;;;;20.00;10.25;;;;;;;1.42;100.00;100685.72;5032522;28;20539;-86
2023/12/06 08:03:11;;;;;;;21.02;10.25;;;;;;;1.54;100.00;100682.97;5032644;28;20380;-86
2023/12/06 08:05:38;;;;;;;20.70;9.90;;;;;;;1.55;100.00;100677.00;5031706;28;20484;-86
2023/12/06 08:08:04;;;;;;;25.48;12.07;;;;;;;1.50;100.00;100673.69;5032460;28;20029;-86
2023/12/06 08:10:31;;;;;;;20.70;11.05;;;;;;;1.56;100.00;100681.25;5032495;28;20029;-86
2023/12/06 08:12:56;;;;;;;20.58;12.20;;;;;;;1.56;100.00;100676.16;5031275;28;20036;-86
2023/12/06 08:15:22;;;;;;;15.38;9.48;;;;;;;1.58;100.00;100676.94;5031215;28;20096;-86
2023/12/06 08:17:47;;;;;;;23.60;10.10;;;;;;;1.55;100.00;100671.91;5031450;28;20036;-86
2023/12/06 08:20:13;;;;;;;17.33;10.88;;;;;;;1.45;100.00;100675.47;5032087;28;20030;-86
2023/12/06 08:22:38;;;;;;;16.98;10.00;;;;;;;1.58;100.00;100676.94;5032129;28;20025;-86
2023/12/06 08:25:06;;;;;;;14.27;9.13;;;;;;;1.67;100.00;100681.03;5030627;28;20057;-86
2023/12/06 08:27:33;;;;;;;17.30;10.00;;;;;;;1.63;100.00;100684.50;5031507;28;20030;-86
2023/12/06 08:29:59;;;;;;;21.15;10.88;;;;;;;1.67;100.00;100681.88;5030782;28;20488;-86
2023/12/06 08:32:25;;;;;;;23.25;11.25;;;;;;;1.73;100.00;100673.28;5031507;28;20053;-86
2023/12/06 08:34:50;;;;;;;24.20;11.68;;;;;;;1.79;100.00;100664.75;5028793;28;20033;-86
2023/12/06 08:37:16;;;;;;;22.75;11.80;;;;;;;1.84;100.00;100668.03;5031247;28;20029;-87
2023/12/06 08:39:43;;;;;;;24.25;12.70;;;;;;;1.89;100.00;100666.25;5031790;28;20472;-87
2023/12/06 08:42:08;;;;;;;21.05;12.00;;;;;;;1.93;100.00;100657.69;5031798;28;20022;-86
2023/12/06 08:44:34;;;;;;;23.52;12.13;;;;;;;1.98;100.00;100661.00;5031520;28;20128;-86
2023/12/06 08:46:59;;;;;;;23.55;11.98;;;;;;;2.03;100.00;100654.09;5034147;28;20044;-85
2023/12/06 08:49:25;;;;;;;21.50;11.40;;;;;;;2.12;100.00;100651.41;5030611;28;20029;-85
2023/12/06 08:51:50;;;;;;;26.38;13.30;;;;;;;2.19;100.00;100648.72;5031431;28;20026;-86
2023/12/06 08:54:16;;;;;;;25.83;12.90;;;;;;;2.22;100.00;100644.41;5034433;28;20464;-87
2023/12/06 08:56:42;;;;;;;21.67;12.68;;;;;;;2.27;100.00;100646.88;5031617;28;20030;-86
2023/12/06 08:59:07;;;;;;;26.13;12.77;;;;;;;2.31;100.00;100648.47;5031603;28;20155;-86
2023/12/06 09:01:32;;;;;;;26.27;13.82;;;;;;;2.31;100.00;100643.38;5036287;28;20420;-86
2023/12/06 09:03:58;;;;;;;22.10;11.38;;;;;;;2.37;100.00;100643.28;5039337;28;20029;-85
2023/12/06 09:06:23;;;;;;;24.10;13.43;;;;;;;2.35;100.00;100640.75;5033029;28;20034;-86
2023/12/06 09:08:48;;;;;;;23.25;12.45;;;;;;;2.43;100.00;100647.38;5048974;28;20449;-85
2023/12/06 09:11:21;;;;;;;21.10;11.30;;;;;;;2.45;100.00;100651.59;5037457;28;20491;-86
2023/12/06 09:13:48;;;;;;;20.48;11.60;;;;;;;2.51;100.00;100655.69;5031125;28;20033;-86
2023/12/06 09:16:13;;;;;;;18.80;9.57;;;;;;;2.56;100.00;100648.78;5032190;28;20030;-88
2023/12/06 09:18:39;;;;;;;21.55;10.38;;;;;;;2.61;100.00;100648.69;5034505;28;20532;-86
2023/12/06 09:21:05;;;;;;;22.23;11.63;;;;;;;2.63;100.00;100639.31;5040446;28;20025;-86
2023/12/06 09:23:31;;;;;;;18.27;10.13;;;;;;;2.61;100.00;100638.50;5029479;28;20111;-88
2023/12/06 09:25:56;;;;;;;19.77;11.13;;;;;;;2.68;100.00;100642.59;5050032;28;20040;-86
2023/12/06 09:28:22;;;;;;;25.17;10.93;;;;;;;2.78;100.00;100646.66;5071231;28;20035;-87
2023/12/06 09:30:47;;;;;;;29.92;11.50;;;;;;;2.84;100.00;100638.84;5070910;28;20474;-87
2023/12/06 09:33:13;;;;;;;22.25;11.40;;;;;;;2.94;100.00;100639.50;5037062;28;20032;-87
2023/12/06 09:35:40;;;;;;;23.33;10.95;;;;;;;2.95;100.00;100647.13;5030544;28;20061;-87
2023/12/06 09:38:05;;;;;;;21.73;12.52;;;;;;;2.90;100.00;100637.88;5047702;28;20360;-87
2023/12/06 09:40:30;;;;;;;20.77;11.90;;;;;;;2.91;100.00;100640.41;5059273;28;20039;-87
2023/12/06 09:43:00;;;;;;;22.85;11.10;;;;;;;3.09;100.00;100644.22;5047173;28;20120;-86
2023/12/06 09:45:26;;;;;;;23.88;12.75;;;;;;;3.05;100.00;100642.66;5035060;28;20369;-86
2023/12/06 09:47:52;;;;;;;21.55;11.25;;;;;;;3.14;100.00;100646.69;5034606;28;20028;-86
2023/12/06 09:50:18;;;;;;;25.30;12.85;;;;;;;3.24;100.00;100652.41;5042205;28;20395;-86
2023/12/06 09:52:43;;;;;;;28.85;11.57;;;;;;;3.21;100.00;100653.31;5042901;28;20029;-85
2023/12/06 09:55:09;;;;;;;18.80;11.65;;;;;;;3.20;100.00;100654.19;5034290;28;20560;-84
2023/12/06 09:57:35;;;;;;;16.45;10.60;;;;;;;3.50;100.00;100655.16;5055773;28;20028;-87
2023/12/06 10:00:00;;;;;;;19.15;10.57;;;;;;;3.54;100.00;100661.03;5068189;28;20503;-86
2023/12/06 10:02:26;;;;;;;19.73;10.82;;;;;;;3.54;100.00;100661.88;5046082;28;20036;-87
2023/12/06 10:04:51;;;;;;;19.63;11.52;;;;;;;3.33;100.00;100673.44;5042711;28;20026;-85
2023/12/06 10:07:19;;;;;;;19.42;11.50;;;;;;;3.15;100.00;100666.22;5034376;28;20041;-87
2023/12/06 10:09:51;;;;;;;18.00;10.90;;;;;;;3.02;100.00;100677.56;5033060;28;20480;-86
2023/12/06 10:12:16;;;;;;;17.90;10.95;;;;;;;2.79;100.00;100666.16;5034134;28;20040;-86
2023/12/06 10:14:42;;;;;;;20.40;11.52;;;;;;;2.82;100.00;100671.19;5036735;28;20025;-86
2023/12/06 10:17:10;;;;;;;18.65;10.85;;;;;;;2.84;100.00;100666.91;5035426;28;20036;-86
2023/12/06 10:19:37;;;;;;;23.08;13.25;;;;;;;2.71;100.00;100665.50;5033671;28;20029;-86
2023/12/06 10:22:03;;;;;;;23.55;12.85;;;;;;;2.74;100.00;100667.97;5033249;28;20112;-86
2023/12/06 10:24:28;;;;;;;27.33;13.98;;;;;;;2.70;100.00;100671.44;5034586;28;20086;-85
2023/12/06 10:27:02;;;;;;;27.33;15.13;;;;;;;2.73;100.00;100668.81;5033046;28;20029;-88
2023/12/06 10:29:31;;;;;;;23.20;13.23;;;;;;;2.63;100.00;100664.81;5051993;28;20441;-86
2023/12/06 10:31:58;;;;;;;21.63;12.70;;;;;;;2.72;100.00;100665.44;5036458;28;20095;-85
2023/12/06 10:34:25;;;;;;;21.55;12.68;;;;;;;2.79;100.00;100667.00;5039372;28;20030;-85
2023/12/06 10:36:51;;;;;;;18.85;11.52;;;;;;;2.87;100.00;100658.34;5065073;28;20033;-86
2023/12/06 10:39:20;;;;;;;18.38;11.40;;;;;;;2.74;100.00;100657.78;5033790;28;20036;-85
2023/12/06 10:41:49;;;;;;;21.50;11.88;;;;;;;2.55;100.00;100650.50;5040169;28;20113;-87
2023/12/06 10:44:14;;;;;;;22.38;12.20;;;;;;;2.49;100.00;100643.00;5046739;28;20028;-87
2023/12/06 10:46:41;;;;;;;22.48;12.60;;;;;;;2.43;100.00;100648.22;5049268;28;20029;-87
2023/12/06 10:49:08;;;;;;;22.58;13.32;;;;;;;2.28;100.00;100639.19;5026182;28;20029;-87
2023/12/06 10:51:34;;;;;;;22.38;12.23;;;;;;;2.49;100.00;100643.00;5029863;28;20577;-86
2023/12/06 10:54:01;;;;;;;23.65;13.90;;;;;;;2.40;100.00;100642.38;5058237;28;20040;-86
2023/12/06 10:56:28;;;;;;;25.35;13.10;;;;;;;2.42;100.00;100641.47;5064608;28;20060;-87
2023/12/06 10:58:55;;;;;;;29.90;13.43;;;;;;;2.41;100.00;100637.22;5052122;28;20029;-86
2023/12/06 11:01:22;;;;;;;27.45;14.07;;;;;;;2.44;100.00;100632.09;5038996;28;20116;-87
2023/12/06 11:03:47;;;;;;;24.10;14.05;;;;;;;2.46;100.00;100625.22;5071568;28;20024;-86
2023/12/06 11:06:43;;;;;;;26.45;14.40;;;;;;;2.62;100.00;100617.28;5067129;28;20553;-86
2023/12/06 11:09:14;;;;;;;24.50;13.65;;;;;;;2.73;100.00;100617.84;5052024;28;20043;-87
2023/12/06 11:11:51;;;;;;;23.33;13.23;;;;;;;2.73;100.00;100630.59;5041795;28;20025;-87